sensor_id;sensor_type;location;lat;lon;timestamp;pressure;altitude;pressure_sealevel;temperature;humidity
78198;BME280;67472;51.554;7.812;2023-06-22T00:02:29;100981.06;;;19.32;100.00
78198;BME280;67472;51.554;7.812;2023-06-22T00:05:15;100986.22;;;19.41;100.00
78198;BME280;67472;51.554;7.812;2023-06-22T00:08:03;100980.63;;;19.51;100.00
78198;BME280;67472;51.554;7.812;2023-06-22T00:10:52;100977.00;;;19.66;100.00
78198;BME280;67472;51.554;7.812;2023-06-22T00:13:39;100963.34;;;19.53;100.00
78198;BME280;67472;51.554;7.812;2023-06-22T00:16:34;100971.53;;;19.60;100.00
78198;BME280;67472;51.554;7.812;2023-06-22T00:19:36;100973.00;;;19.62;100.00
78198;BME280;67472;51.554;7.812;2023-06-22T00:22:25;100981.72;;;19.64;100.00
78198;BME280;67472;51.554;7.812;2023-06-22T00:25:15;100979.75;;;19.58;100.00
78198;BME280;67472;51.554;7.812;2023-06-22T00:28:03;100981.47;;;19.51;100.00
78198;BME280;67472;51.554;7.812;2023-06-22T00:30:52;100977.78;;;19.52;100.00
78198;BME280;67472;51.554;7.812;2023-06-22T00:33:39;100983.72;;;19.62;100.00
78198;BME280;67472;51.554;7.812;2023-06-22T00:36:25;100976.72;;;19.84;100.00
78198;BME280;67472;51.554;7.812;2023-06-22T00:39:13;100968.66;;;19.84;100.00
78198;BME280;67472;51.554;7.812;2023-06-22T00:41:59;100977.00;;;19.66;100.00
78198;BME280;67472;51.554;7.812;2023-06-22T00:44:47;100975.94;;;19.53;100.00
78198;BME280;67472;51.554;7.812;2023-06-22T00:47:34;100974.13;;;19.45;100.00
78198;BME280;67472;51.554;7.812;2023-06-22T00:50:24;100985.69;;;19.46;100.00
78198;BME280;67472;51.554;7.812;2023-06-22T00:53:12;100982.53;;;19.42;100.00
78198;BME280;67472;51.554;7.812;2023-06-22T00:55:59;100979.00;;;19.42;100.00
78198;BME280;67472;51.554;7.812;2023-06-22T00:58:47;100982.34;;;19.44;100.00
78198;BME280;67472;51.554;7.812;2023-06-22T01:01:39;100973.00;;;19.32;100.00
78198;BME280;67472;51.554;7.812;2023-06-22T01:04:35;100976.88;;;19.29;100.00
78198;BME280;67472;51.554;7.812;2023-06-22T01:07:28;100980.06;;;19.33;100.00
78198;BME280;67472;51.554;7.812;2023-06-22T01:10:25;100984.88;;;19.37;100.00
78198;BME280;67472;51.554;7.812;2023-06-22T01:13:20;100992.06;;;19.37;100.00
78198;BME280;67472;51.554;7.812;2023-06-22T01:16:14;100980.69;;;19.43;100.00
78198;BME280;67472;51.554;7.812;2023-06-22T01:19:14;100984.34;;;19.42;100.00
78198;BME280;67472;51.554;7.812;2023-06-22T01:22:06;100980.31;;;19.46;100.00
78198;BME280;67472;51.554;7.812;2023-06-22T01:25:07;100977.50;;;19.47;100.00
78198;BME280;67472;51.554;7.812;2023-06-22T01:28:03;100964.81;;;19.64;100.00
78198;BME280;67472;51.554;7.812;2023-06-22T01:30:53;100962.06;;;19.49;100.00
78198;BME280;67472;51.554;7.812;2023-06-22T01:33:50;100955.66;;;19.50;100.00
78198;BME280;67472;51.554;7.812;2023-06-22T01:36:37;100966.63;;;19.41;100.00
78198;BME280;67472;51.554;7.812;2023-06-22T01:39:24;100967.78;;;19.46;100.00
78198;BME280;67472;51.554;7.812;2023-06-22T01:42:13;100961.94;;;19.43;100.00
78198;BME280;67472;51.554;7.812;2023-06-22T01:45:00;100956.75;;;19.33;100.00
78198;BME280;67472;51.554;7.812;2023-06-22T01:47:48;100951.56;;;19.40;100.00
78198;BME280;67472;51.554;7.812;2023-06-22T01:50:35;100954.06;;;19.33;100.00
78198;BME280;67472;51.554;7.812;2023-06-22T01:53:22;100956.75;;;19.33;100.00
78198;BME280;67472;51.554;7.812;2023-06-22T01:56:10;100958.00;;;19.23;100.00
78198;BME280;67472;51.554;7.812;2023-06-22T01:59:01;100972.56;;;19.20;100.00
78198;BME280;67472;51.554;7.812;2023-06-22T02:01:57;100974.94;;;19.15;100.00
78198;BME280;67472;51.554;7.812;2023-06-22T02:04:48;100963.91;;;19.10;100.00
78198;BME280;67472;51.554;7.812;2023-06-22T02:07:41;100966.72;;;19.16;100.00
78198;BME280;67472;51.554;7.812;2023-06-22T02:10:31;100970.66;;;19.06;100.00
78198;BME280;67472;51.554;7.812;2023-06-22T02:13:18;100973.09;;;19.15;100.00
78198;BME280;67472;51.554;7.812;2023-06-22T02:16:05;100974.72;;;19.25;100.00
78198;BME280;67472;51.554;7.812;2023-06-22T02:18:51;100984.25;;;19.27;100.00
78198;BME280;67472;51.554;7.812;2023-06-22T02:21:39;100986.91;;;19.27;100.00
78198;BME280;67472;51.554;7.812;2023-06-22T02:24:26;100977.13;;;19.11;100.00
78198;BME280;67472;51.554;7.812;2023-06-22T02:27:15;100982.16;;;19.14;100.00
78198;BME280;67472;51.554;7.812;2023-06-22T02:30:02;100979.81;;;19.11;100.00
78198;BME280;67472;51.554;7.812;2023-06-22T02:32:49;100974.50;;;19.03;100.00
78198;BME280;67472;51.554;7.812;2023-06-22T02:35:43;100967.72;;;19.15;100.00
78198;BME280;67472;51.554;7.812;2023-06-22T02:38:48;100962.56;;;19.14;100.00
78198;BME280;67472;51.554;7.812;2023-06-22T02:41:35;100962.66;;;18.98;100.00
78198;BME280;67472;51.554;7.812;2023-06-22T02:44:21;100959.03;;;18.83;100.00
78198;BME280;67472;51.554;7.812;2023-06-22T02:47:09;100970.81;;;18.66;100.00
78198;BME280;67472;51.554;7.812;2023-06-22T02:49:56;100982.38;;;18.50;100.00
78198;BME280;67472;51.554;7.812;2023-06-22T02:52:43;100987.03;;;18.32;100.00
78198;BME280;67472;51.554;7.812;2023-06-22T02:55:32;100984.88;;;18.35;100.00
78198;BME280;67472;51.554;7.812;2023-06-22T02:58:18;100994.75;;;18.27;100.00
78198;BME280;67472;51.554;7.812;2023-06-22T03:01:05;100989.91;;;18.22;100.00
78198;BME280;67472;51.554;7.812;2023-06-22T03:03:54;100990.06;;;18.21;100.00
78198;BME280;67472;51.554;7.812;2023-06-22T03:06:41;100991.91;;;18.20;100.00
78198;BME280;67472;51.554;7.812;2023-06-22T03:09:28;101001.09;;;18.18;100.00
78198;BME280;67472;51.554;7.812;2023-06-22T03:12:18;100995.44;;;18.13;100.00
78198;BME280;67472;51.554;7.812;2023-06-22T03:15:12;101000.75;;;18.21;100.00
78198;BME280;67472;51.554;7.812;2023-06-22T03:17:59;100998.59;;;18.24;100.00
78198;BME280;67472;51.554;7.812;2023-06-22T03:20:45;100993.25;;;18.24;100.00
78198;BME280;67472;51.554;7.812;2023-06-22T03:23:32;100996.25;;;18.21;100.00
78198;BME280;67472;51.554;7.812;2023-06-22T03:26:19;100997.06;;;18.30;100.00
78198;BME280;67472;51.554;7.812;2023-06-22T03:29:06;100989.06;;;18.22;100.00
78198;BME280;67472;51.554;7.812;2023-06-22T03:31:54;100991.56;;;18.23;100.00
78198;BME280;67472;51.554;7.812;2023-06-22T03:34:41;100994.75;;;18.27;100.00
78198;BME280;67472;51.554;7.812;2023-06-22T03:37:32;100993.91;;;18.26;100.00
78198;BME280;67472;51.554;7.812;2023-06-22T03:40:20;100997.41;;;18.27;100.00
78198;BME280;67472;51.554;7.812;2023-06-22T03:43:06;100999.75;;;18.38;100.00
78198;BME280;67472;51.554;7.812;2023-06-22T03:45:55;101007.09;;;18.44;100.00
78198;BME280;67472;51.554;7.812;2023-06-22T03:48:42;100998.41;;;18.42;100.00
78198;BME280;67472;51.554;7.812;2023-06-22T03:51:30;100999.41;;;18.41;100.00
78198;BME280;67472;51.554;7.812;2023-06-22T03:54:17;101002.91;;;18.41;100.00
78198;BME280;67472;51.554;7.812;2023-06-22T03:57:05;101002.56;;;18.69;100.00
78198;BME280;67472;51.554;7.812;2023-06-22T03:59:51;100992.69;;;18.69;100.00
78198;BME280;67472;51.554;7.812;2023-06-22T04:02:39;100992.81;;;18.76;100.00
78198;BME280;67472;51.554;7.812;2023-06-22T04:05:25;100985.84;;;18.75;100.00
78198;BME280;67472;51.554;7.812;2023-06-22T04:08:14;100994.81;;;18.82;100.00
78198;BME280;67472;51.554;7.812;2023-06-22T04:11:01;100992.00;;;18.75;100.00
78198;BME280;67472;51.554;7.812;2023-06-22T04:13:47;100987.31;;;18.77;100.00
78198;BME280;67472;51.554;7.812;2023-06-22T04:16:35;100977.19;;;18.56;100.00
78198;BME280;67472;51.554;7.812;2023-06-22T04:19:23;100974.66;;;18.55;100.00
78198;BME280;67472;51.554;7.812;2023-06-22T04:22:10;100980.81;;;18.63;100.00
78198;BME280;67472;51.554;7.812;2023-06-22T04:24:56;100977.34;;;18.63;100.00
78198;BME280;67472;51.554;7.812;2023-06-22T04:27:43;100980.94;;;18.78;100.00
78198;BME280;67472;51.554;7.812;2023-06-22T04:30:31;100967.22;;;18.89;100.00
78198;BME280;67472;51.554;7.812;2023-06-22T04:33:19;100969.16;;;19.03;100.00
78198;BME280;67472;51.554;7.812;2023-06-22T04:36:06;100977.59;;;19.23;100.00
78198;BME280;67472;51.554;7.812;2023-06-22T04:38:52;100970.75;;;19.51;100.00
78198;BME280;67472;51.554;7.812;2023-06-22T04:41:41;100954.31;;;19.77;100.00
78198;BME280;67472;51.554;7.812;2023-06-22T04:44:27;100940.59;;;19.95;100.00
78198;BME280;67472;51.554;7.812;2023-06-22T04:47:14;100918.06;;;20.04;100.00
78198;BME280;67472;51.554;7.812;2023-06-22T04:50:01;100922.47;;;19.97;100.00
78198;BME280;67472;51.554;7.812;2023-06-22T04:52:53;100939.31;;;19.91;100.00
78198;BME280;67472;51.554;7.812;2023-06-22T04:55:40;100965.22;;;19.76;100.00
78198;BME280;67472;51.554;7.812;2023-06-22T04:58:30;100975.53;;;19.64;100.00
78198;BME280;67472;51.554;7.812;2023-06-22T05:01:18;100970.16;;;19.64;100.00
78198;BME280;67472;51.554;7.812;2023-06-22T05:04:08;100971.47;;;19.68;100.00
78198;BME280;67472;51.554;7.812;2023-06-22T05:06:58;100964.44;;;19.67;100.00
78198;BME280;67472;51.554;7.812;2023-06-22T05:09:46;100946.75;;;19.58;100.00
78198;BME280;67472;51.554;7.812;2023-06-22T05:12:32;100939.00;;;19.63;100.00
78198;BME280;67472;51.554;7.812;2023-06-22T05:15:19;100939.25;;;19.76;100.00
78198;BME280;67472;51.554;7.812;2023-06-22T05:18:06;100941.50;;;19.87;100.00
78198;BME280;67472;51.554;7.812;2023-06-22T05:20:53;100947.91;;;20.01;100.00
78198;BME280;67472;51.554;7.812;2023-06-22T05:23:39;100952.06;;;20.03;100.00
78198;BME280;67472;51.554;7.812;2023-06-22T05:26:28;100954.06;;;20.24;100.00
78198;BME280;67472;51.554;7.812;2023-06-22T05:29:14;100957.63;;;20.02;100.00
78198;BME280;67472;51.554;7.812;2023-06-22T05:32:01;100968.78;;;19.91;100.00
78198;BME280;67472;51.554;7.812;2023-06-22T05:34:48;100984.50;;;19.48;100.00
78198;BME280;67472;51.554;7.812;2023-06-22T05:37:34;101002.19;;;19.18;100.00
78198;BME280;67472;51.554;7.812;2023-06-22T05:40:20;101018.75;;;19.22;100.00
78198;BME280;67472;51.554;7.812;2023-06-22T05:43:08;101029.56;;;19.06;100.00
78198;BME280;67472;51.554;7.812;2023-06-22T05:45:55;101040.78;;;18.93;100.00
78198;BME280;67472;51.554;7.812;2023-06-22T05:48:41;101050.19;;;18.89;100.00
78198;BME280;67472;51.554;7.812;2023-06-22T05:51:32;101067.59;;;18.85;100.00
78198;BME280;67472;51.554;7.812;2023-06-22T05:54:18;101079.16;;;18.78;100.00
78198;BME280;67472;51.554;7.812;2023-06-22T05:57:05;101096.56;;;18.66;100.00
78198;BME280;67472;51.554;7.812;2023-06-22T05:59:53;101116.47;;;18.63;100.00
78198;BME280;67472;51.554;7.812;2023-06-22T06:02:40;101116.66;;;18.53;100.00
78198;BME280;67472;51.554;7.812;2023-06-22T06:05:43;101114.81;;;18.54;100.00
78198;BME280;67472;51.554;7.812;2023-06-22T06:08:40;101127.13;;;18.47;100.00
78198;BME280;67472;51.554;7.812;2023-06-22T06:11:28;101140.53;;;18.55;100.00
78198;BME280;67472;51.554;7.812;2023-06-22T06:14:16;101155.78;;;18.63;100.00
78198;BME280;67472;51.554;7.812;2023-06-22T06:17:05;101168.50;;;18.69;100.00
78198;BME280;67472;51.554;7.812;2023-06-22T06:19:51;101178.69;;;18.65;100.00
78198;BME280;67472;51.554;7.812;2023-06-22T06:22:37;101178.50;;;18.67;100.00
78198;BME280;67472;51.554;7.812;2023-06-22T06:25:24;101189.53;;;18.63;100.00
78198;BME280;67472;51.554;7.812;2023-06-22T06:28:14;101197.56;;;18.63;100.00
78198;BME280;67472;51.554;7.812;2023-06-22T06:31:27;101201.78;;;18.66;100.00
78198;BME280;67472;51.554;7.812;2023-06-22T06:34:31;101203.63;;;18.66;100.00
78198;BME280;67472;51.554;7.812;2023-06-22T06:37:20;101216.81;;;18.67;100.00
78198;BME280;67472;51.554;7.812;2023-06-22T06:40:17;101225.34;;;18.79;100.00
78198;BME280;67472;51.554;7.812;2023-06-22T06:43:04;101224.19;;;18.81;100.00
78198;BME280;67472;51.554;7.812;2023-06-22T06:45:52;101233.09;;;18.98;100.00
78198;BME280;67472;51.554;7.812;2023-06-22T06:48:52;101230.91;;;19.09;100.00
78198;BME280;67472;51.554;7.812;2023-06-22T06:51:41;101241.06;;;19.30;100.00
78198;BME280;67472;51.554;7.812;2023-06-22T06:54:29;101250.97;;;19.46;100.00
78198;BME280;67472;51.554;7.812;2023-06-22T06:57:24;101235.22;;;19.59;100.00
78198;BME280;67472;51.554;7.812;2023-06-22T07:00:26;101230.47;;;19.69;100.00
78198;BME280;67472;51.554;7.812;2023-06-22T07:03:29;101231.00;;;19.64;100.00
78198;BME280;67472;51.554;7.812;2023-06-22T07:06:29;101224.84;;;19.95;100.00
78198;BME280;67472;51.554;7.812;2023-06-22T07:09:22;101215.94;;;20.02;100.00
78198;BME280;67472;51.554;7.812;2023-06-22T07:12:12;101196.47;;;20.00;100.00
78198;BME280;67472;51.554;7.812;2023-06-22T07:15:09;101172.28;;;20.16;100.00
78198;BME280;67472;51.554;7.812;2023-06-22T07:17:56;101167.66;;;20.33;100.00
78198;BME280;67472;51.554;7.812;2023-06-22T07:20:48;101143.16;;;20.59;100.00
78198;BME280;67472;51.554;7.812;2023-06-22T07:23:37;101122.16;;;20.62;100.00
78198;BME280;67472;51.554;7.812;2023-06-22T07:26:41;101098.00;;;20.62;100.00
78198;BME280;67472;51.554;7.812;2023-06-22T07:29:35;101093.47;;;20.63;100.00
78198;BME280;67472;51.554;7.812;2023-06-22T07:32:25;101084.38;;;20.64;100.00
78198;BME280;67472;51.554;7.812;2023-06-22T07:35:20;101074.09;;;20.67;100.00
78198;BME280;67472;51.554;7.812;2023-06-22T07:38:13;101065.19;;;20.52;100.00
78198;BME280;67472;51.554;7.812;2023-06-22T07:41:03;101061.00;;;20.50;100.00
78198;BME280;67472;51.554;7.812;2023-06-22T07:43:54;101070.31;;;20.62;100.00
78198;BME280;67472;51.554;7.812;2023-06-22T07:46:43;101076.78;;;20.67;100.00
78198;BME280;67472;51.554;7.812;2023-06-22T07:49:45;101072.16;;;20.76;100.00
78198;BME280;67472;51.554;7.812;2023-06-22T07:52:34;101062.00;;;20.86;100.00
78198;BME280;67472;51.554;7.812;2023-06-22T07:55:40;101054.69;;;20.95;100.00
78198;BME280;67472;51.554;7.812;2023-06-22T07:58:31;101035.59;;;21.04;100.00
78198;BME280;67472;51.554;7.812;2023-06-22T08:01:28;101027.00;;;21.38;100.00
78198;BME280;67472;51.554;7.812;2023-06-22T08:04:19;101013.59;;;21.80;100.00
78198;BME280;67472;51.554;7.812;2023-06-22T08:07:15;101008.44;;;22.21;100.00
78198;BME280;67472;51.554;7.812;2023-06-22T08:10:09;100970.47;;;22.37;100.00
78198;BME280;67472;51.554;7.812;2023-06-22T08:12:55;100954.34;;;22.72;100.00
78198;BME280;67472;51.554;7.812;2023-06-22T08:15:42;100927.84;;;23.29;100.00
78198;BME280;67472;51.554;7.812;2023-06-22T08:18:30;100896.06;;;23.12;100.00
78198;BME280;67472;51.554;7.812;2023-06-22T08:21:16;100897.84;;;23.72;100.00
78198;BME280;67472;51.554;7.812;2023-06-22T08:24:03;100875.44;;;23.84;100.00
78198;BME280;67472;51.554;7.812;2023-06-22T08:26:51;100862.91;;;24.36;100.00
78198;BME280;67472;51.554;7.812;2023-06-22T08:29:38;100859.25;;;23.91;100.00
78198;BME280;67472;51.554;7.812;2023-06-22T08:32:24;100860.28;;;23.96;100.00
78198;BME280;67472;51.554;7.812;2023-06-22T08:35:13;100857.78;;;23.69;100.00
78198;BME280;67472;51.554;7.812;2023-06-22T08:41:15;100860.91;;;23.46;100.00
78198;BME280;67472;51.554;7.812;2023-06-22T08:44:02;100852.78;;;23.33;100.00
78198;BME280;67472;51.554;7.812;2023-06-22T08:47:06;100854.84;;;23.31;100.00
78198;BME280;67472;51.554;7.812;2023-06-22T09:01:29;100792.00;;;25.29;100.00
78198;BME280;67472;51.554;7.812;2023-06-22T09:04:39;100790.31;;;25.28;100.00
78198;BME280;67472;51.554;7.812;2023-06-22T09:07:27;100781.72;;;25.13;100.00
78198;BME280;67472;51.554;7.812;2023-06-22T09:10:14;100768.69;;;25.03;100.00
78198;BME280;67472;51.554;7.812;2023-06-22T09:13:01;100765.06;;;25.16;100.00
78198;BME280;67472;51.554;7.812;2023-06-22T09:15:48;100769.22;;;25.68;100.00
78198;BME280;67472;51.554;7.812;2023-06-22T09:18:45;100752.69;;;25.51;100.00
78198;BME280;67472;51.554;7.812;2023-06-22T09:21:36;100735.56;;;26.00;100.00
78198;BME280;67472;51.554;7.812;2023-06-22T09:24:28;100737.19;;;25.65;100.00
78198;BME280;67472;51.554;7.812;2023-06-22T09:27:18;100739.06;;;25.64;100.00
78198;BME280;67472;51.554;7.812;2023-06-22T09:30:10;100749.56;;;25.54;100.00
78198;BME280;67472;51.554;7.812;2023-06-22T09:33:04;100746.59;;;25.62;100.00
78198;BME280;67472;51.554;7.812;2023-06-22T09:35:53;100735.09;;;26.03;100.00
78198;BME280;67472;51.554;7.812;2023-06-22T09:38:39;100730.38;;;26.35;100.00
78198;BME280;67472;51.554;7.812;2023-06-22T09:41:27;100720.50;;;26.41;100.00
78198;BME280;67472;51.554;7.812;2023-06-22T09:44:16;100722.22;;;26.35;100.00
78198;BME280;67472;51.554;7.812;2023-06-22T09:47:06;100722.84;;;26.67;100.00
78198;BME280;67472;51.554;7.812;2023-06-22T09:50:01;100720.56;;;26.93;100.00
78198;BME280;67472;51.554;7.812;2023-06-22T09:52:50;100706.88;;;26.59;100.00
78198;BME280;67472;51.554;7.812;2023-06-22T09:55:44;100696.69;;;26.72;100.00
78198;BME280;67472;51.554;7.812;2023-06-22T09:58:30;100685.66;;;26.85;100.00
78198;BME280;67472;51.554;7.812;2023-06-22T10:01:22;100674.63;;;26.69;100.00
78198;BME280;67472;51.554;7.812;2023-06-22T10:04:09;100668.56;;;26.85;100.00
78198;BME280;67472;51.554;7.812;2023-06-22T10:06:57;100661.88;;;26.58;100.00
78198;BME280;67472;51.554;7.812;2023-06-22T10:09:49;100666.06;;;26.42;100.00
78198;BME280;67472;51.554;7.812;2023-06-22T10:12:35;100656.59;;;26.63;100.00
78198;BME280;67472;51.554;7.812;2023-06-22T10:15:23;100651.59;;;26.48;100.00
78198;BME280;67472;51.554;7.812;2023-06-22T10:18:14;100645.91;;;25.90;100.00
78198;BME280;67472;51.554;7.812;2023-06-22T10:21:02;100661.88;;;25.62;100.00
78198;BME280;67472;51.554;7.812;2023-06-22T10:23:50;100660.53;;;25.46;100.00
78198;BME280;67472;51.554;7.812;2023-06-22T10:26:58;100655.25;;;25.58;100.00
78198;BME280;67472;51.554;7.812;2023-06-22T10:29:47;100658.09;;;25.63;100.00
78198;BME280;67472;51.554;7.812;2023-06-22T10:32:42;100669.63;;;25.76;100.00
78198;BME280;67472;51.554;7.812;2023-06-22T10:35:32;100678.06;;;25.98;100.00
78198;BME280;67472;51.554;7.812;2023-06-22T10:38:37;100661.69;;;26.29;100.00
78198;BME280;67472;51.554;7.812;2023-06-22T10:41:27;100650.19;;;26.87;100.00
78198;BME280;67472;51.554;7.812;2023-06-22T10:44:24;100634.66;;;26.53;100.00
78198;BME280;67472;51.554;7.812;2023-06-22T10:47:11;100640.34;;;26.33;100.00
78198;BME280;67472;51.554;7.812;2023-06-22T10:49:58;100627.13;;;26.25;100.00
78198;BME280;67472;51.554;7.812;2023-06-22T10:52:49;100624.53;;;26.18;100.00
78198;BME280;67472;51.554;7.812;2023-06-22T10:55:45;100625.81;;;26.16;100.00
78198;BME280;67472;51.554;7.812;2023-06-22T10:58:34;100622.81;;;26.06;100.00
78198;BME280;67472;51.554;7.812;2023-06-22T11:01:28;100623.59;;;25.95;100.00
78198;BME280;67472;51.554;7.812;2023-06-22T11:04:19;100632.91;;;25.80;100.00
78198;BME280;67472;51.554;7.812;2023-06-22T11:07:45;100629.94;;;25.70;100.00
78198;BME280;67472;51.554;7.812;2023-06-22T11:10:44;100628.91;;;25.47;100.00
78198;BME280;67472;51.554;7.812;2023-06-22T11:13:32;100630.06;;;25.39;100.00
78198;BME280;67472;51.554;7.812;2023-06-22T11:16:22;100628.69;;;25.30;100.00
78198;BME280;67472;51.554;7.812;2023-06-22T11:19:09;100624.16;;;25.24;100.00
78198;BME280;67472;51.554;7.812;2023-06-22T11:21:56;100628.75;;;25.23;100.00
78198;BME280;67472;51.554;7.812;2023-06-22T11:24:48;100650.38;;;25.23;100.00
78198;BME280;67472;51.554;7.812;2023-06-22T11:27:40;100662.66;;;25.44;100.00
78198;BME280;67472;51.554;7.812;2023-06-22T11:30:28;100679.91;;;25.43;100.00
78198;BME280;67472;51.554;7.812;2023-06-22T11:33:15;100707.38;;;24.97;100.00
78198;BME280;67472;51.554;7.812;2023-06-22T11:36:06;100725.72;;;24.57;100.00
78198;BME280;67472;51.554;7.812;2023-06-22T11:38:52;100750.72;;;24.46;100.00
78198;BME280;67472;51.554;7.812;2023-06-22T11:41:39;100756.69;;;24.55;100.00
78198;BME280;67472;51.554;7.812;2023-06-22T11:44:29;100760.97;;;24.25;100.00
78198;BME280;67472;51.554;7.812;2023-06-22T11:47:15;100757.50;;;24.17;100.00
78198;BME280;67472;51.554;7.812;2023-06-22T11:50:05;100772.00;;;24.23;100.00
78198;BME280;67472;51.554;7.812;2023-06-22T11:52:54;100753.75;;;24.12;100.00
78198;BME280;67472;51.554;7.812;2023-06-22T11:55:42;100765.19;;;24.01;100.00
78198;BME280;67472;51.554;7.812;2023-06-22T11:58:30;100765.63;;;23.91;100.00
78198;BME280;67472;51.554;7.812;2023-06-22T12:01:20;100776.44;;;23.91;100.00
78198;BME280;67472;51.554;7.812;2023-06-22T12:04:07;100798.66;;;23.74;100.00
78198;BME280;67472;51.554;7.812;2023-06-22T12:06:56;100797.88;;;23.53;100.00
78198;BME280;67472;51.554;7.812;2023-06-22T12:09:45;100792.25;;;23.48;100.00
78198;BME280;67472;51.554;7.812;2023-06-22T12:12:31;100819.63;;;23.39;100.00
78198;BME280;67472;51.554;7.812;2023-06-22T12:15:18;100827.66;;;23.19;100.00
78198;BME280;67472;51.554;7.812;2023-06-22T12:18:08;100831.59;;;23.10;100.00
78198;BME280;67472;51.554;7.812;2023-06-22T12:20:55;100829.66;;;22.84;100.00
78198;BME280;67472;51.554;7.812;2023-06-22T12:23:48;100816.75;;;22.67;100.00
78198;BME280;67472;51.554;7.812;2023-06-22T12:26:40;100828.47;;;22.52;100.00
78198;BME280;67472;51.554;7.812;2023-06-22T12:29:27;100867.56;;;22.42;100.00
78198;BME280;67472;51.554;7.812;2023-06-22T12:32:15;100882.03;;;22.34;100.00
78198;BME280;67472;51.554;7.812;2023-06-22T12:35:05;100881.88;;;22.15;100.00
78198;BME280;67472;51.554;7.812;2023-06-22T12:38:00;100893.44;;;22.09;100.00
78198;BME280;67472;51.554;7.812;2023-06-22T12:40:50;100937.81;;;22.19;100.00
78198;BME280;67472;51.554;7.812;2023-06-22T12:43:43;100954.69;;;22.07;100.00
78198;BME280;67472;51.554;7.812;2023-06-22T12:46:32;100950.78;;;22.09;100.00
78198;BME280;67472;51.554;7.812;2023-06-22T12:49:22;100994.50;;;21.90;100.00
78198;BME280;67472;51.554;7.812;2023-06-22T12:52:12;101035.28;;;21.93;100.00
78198;BME280;67472;51.554;7.812;2023-06-22T12:55:00;101069.56;;;22.06;100.00
78198;BME280;67472;51.554;7.812;2023-06-22T12:57:51;101089.22;;;22.07;100.00
78198;BME280;67472;51.554;7.812;2023-06-22T13:00:42;101073.78;;;22.15;100.00
78198;BME280;67472;51.554;7.812;2023-06-22T13:03:37;100989.72;;;21.71;100.00
78198;BME280;67472;51.554;7.812;2023-06-22T13:06:24;100894.50;;;21.23;100.00
78198;BME280;67472;51.554;7.812;2023-06-22T13:09:35;100916.69;;;20.96;100.00
78198;BME280;67472;51.554;7.812;2023-06-22T13:12:21;100947.16;;;20.88;100.00
78198;BME280;67472;51.554;7.812;2023-06-22T13:15:11;100979.00;;;21.06;100.00
78198;BME280;67472;51.554;7.812;2023-06-22T13:18:24;100976.34;;;21.20;100.00
78198;BME280;67472;51.554;7.812;2023-06-22T13:21:10;100989.81;;;21.42;100.00
78198;BME280;67472;51.554;7.812;2023-06-22T13:24:04;101009.56;;;21.34;100.00
78198;BME280;67472;51.554;7.812;2023-06-22T13:26:57;101006.28;;;21.53;100.00
78198;BME280;67472;51.554;7.812;2023-06-22T13:29:44;101015.31;;;21.67;100.00
78198;BME280;67472;51.554;7.812;2023-06-22T13:32:32;101035.38;;;21.85;100.00
78198;BME280;67472;51.554;7.812;2023-06-22T13:35:20;101050.13;;;21.89;100.00
78198;BME280;67472;51.554;7.812;2023-06-22T13:38:07;101032.88;;;21.84;100.00
78198;BME280;67472;51.554;7.812;2023-06-22T13:40:56;101013.81;;;22.00;100.00
78198;BME280;67472;51.554;7.812;2023-06-22T13:43:44;101004.03;;;21.92;100.00
78198;BME280;67472;51.554;7.812;2023-06-22T13:46:34;100991.44;;;21.78;100.00
78198;BME280;67472;51.554;7.812;2023-06-22T13:49:21;100988.09;;;21.91;100.00
78198;BME280;67472;51.554;7.812;2023-06-22T13:52:12;100978.06;;;22.06;100.00
78198;BME280;67472;51.554;7.812;2023-06-22T13:55:13;100979.72;;;22.28;100.00
78198;BME280;67472;51.554;7.812;2023-06-22T13:58:07;100987.97;;;22.82;100.00
78198;BME280;67472;51.554;7.812;2023-06-22T14:00:58;100970.06;;;23.09;100.00
78198;BME280;67472;51.554;7.812;2023-06-22T14:03:48;100950.34;;;23.56;100.00
78198;BME280;67472;51.554;7.812;2023-06-22T14:06:38;100902.50;;;23.17;100.00
78198;BME280;67472;51.554;7.812;2023-06-22T14:09:26;100872.81;;;22.97;100.00
78198;BME280;67472;51.554;7.812;2023-06-22T14:12:13;100870.38;;;23.29;100.00
78198;BME280;67472;51.554;7.812;2023-06-22T14:15:01;100829.53;;;23.12;100.00
78198;BME280;67472;51.554;7.812;2023-06-22T14:17:53;100803.81;;;23.10;100.00
78198;BME280;67472;51.554;7.812;2023-06-22T14:20:40;100789.94;;;23.32;100.00
78198;BME280;67472;51.554;7.812;2023-06-22T14:23:31;100781.00;;;23.32;100.00
78198;BME280;67472;51.554;7.812;2023-06-22T14:26:19;100771.22;;;23.96;100.00
78198;BME280;67472;51.554;7.812;2023-06-22T14:29:06;100737.41;;;23.87;100.00
78198;BME280;67472;51.554;7.812;2023-06-22T14:31:53;100725.00;;;24.37;100.00
78198;BME280;67472;51.554;7.812;2023-06-22T14:34:40;100705.28;;;24.30;100.00
78198;BME280;67472;51.554;7.812;2023-06-22T14:37:27;100679.03;;;23.99;100.00
78198;BME280;67472;51.554;7.812;2023-06-22T14:40:16;100694.34;;;24.18;100.00
78198;BME280;67472;51.554;7.812;2023-06-22T14:43:07;100681.81;;;23.80;100.00
78198;BME280;67472;51.554;7.812;2023-06-22T14:45:54;100690.25;;;23.96;100.00
78198;BME280;67472;51.554;7.812;2023-06-22T14:48:41;100696.69;;;24.02;100.00
78198;BME280;67472;51.554;7.812;2023-06-22T14:51:29;100678.19;;;24.05;100.00
78198;BME280;67472;51.554;7.812;2023-06-22T14:54:16;100671.13;;;23.98;100.00